Time;durP1;ratioP1;P1;durP2;ratioP2;P2;SDS_P1;SDS_P2;PMS_P1;PMS_P2;Temp;Humidity;BMP_temperature;BMP_pressure;BME280_temperature;BME280_humidity;BME280_pressure;Samples;Min_cycle;Max_cycle;Signal;HPM_P1;HPM_P2
2022/05/19 00:01:26;;;;;;;8.98;4.53;;;4.50;80.70;;;;;;5054636;28;20429;-68
2022/05/19 00:03:52;;;;;;;7.20;3.95;;;4.50;80.70;;;;;;5054623;28;20024;-71
2022/05/19 00:06:18;;;;;;;8.27;4.30;;;4.60;80.40;;;;;;5054467;28;20087;-68
2022/05/19 00:08:44;;;;;;;7.65;4.10;;;4.50;80.50;;;;;;5054457;28;20021;-72
2022/05/19 00:11:14;;;;;;;8.75;3.50;;;4.50;80.40;;;;;;5054215;28;20063;-68
2022/05/19 00:13:40;;;;;;;4.25;2.72;;;4.50;80.30;;;;;;5053193;28;20021;-71
2022/05/19 00:16:06;;;;;;;4.75;3.08;;;4.40;79.40;;;;;;5054353;28;20029;-71
2022/05/19 00:18:33;;;;;;;9.00;2.97;;;4.40;80.00;;;;;;5052778;28;20438;-68
2022/05/19 00:20:59;;;;;;;9.48;4.25;;;4.40;80.50;;;;;;5054217;28;20048;-70
2022/05/19 00:23:24;;;;;;;8.80;3.95;;;4.50;82.00;;;;;;5052990;28;20063;-68
2022/05/19 00:25:50;;;;;;;3.38;2.88;;;4.40;81.40;;;;;;5052753;28;20478;-72
2022/05/19 00:28:16;;;;;;;5.75;3.95;;;4.40;80.70;;;;;;5052783;28;20489;-68
2022/05/19 00:30:43;;;;;;;4.63;3.05;;;4.30;81.30;;;;;;5052268;28;20025;-72
2022/05/19 00:33:09;;;;;;;2.67;2.45;;;4.30;81.60;;;;;;5051823;28;20100;-68
2022/05/19 00:35:35;;;;;;;4.43;3.97;;;4.30;81.80;;;;;;5051954;28;20104;-71
2022/05/19 00:38:01;;;;;;;4.50;2.63;;;4.20;82.20;;;;;;5051724;28;20029;-67
2022/05/19 00:40:27;;;;;;;5.30;2.92;;;4.20;82.40;;;;;;5051507;28;20032;-69
2022/05/19 00:42:52;;;;;;;3.13;2.00;;;4.20;82.70;;;;;;5052833;28;20108;-71
2022/05/19 00:45:25;;;;;;;3.58;2.40;;;4.10;82.20;;;;;;5051123;28;20387;-68
2022/05/19 00:47:59;;;;;;;4.20;2.70;;;4.10;82.20;;;;;;5051783;28;20370;-70
2022/05/19 00:50:38;;;;;;;4.25;2.80;;;4.10;82.50;;;;;;5051783;28;20059;-72
2022/05/19 00:53:12;;;;;;;5.85;3.08;;;4.10;83.10;;;;;;5051575;28;20032;-67
2022/05/19 00:55:44;;;;;;;6.00;3.40;;;4.00;82.90;;;;;;5051618;28;20502;-71
2022/05/19 00:58:23;;;;;;;8.35;4.32;;;4.00;83.10;;;;;;5051338;28;20033;-68
2022/05/19 01:00:49;;;;;;;7.57;4.25;;;4.00;84.00;;;;;;5052468;28;20412;-67
2022/05/19 01:03:17;;;;;;;6.80;3.60;;;3.90;84.60;;;;;;5052117;28;20120;-68
2022/05/19 01:05:53;;;;;;;5.65;3.60;;;3.80;85.60;;;;;;5053552;28;20025;-71
2022/05/19 01:08:34;;;;;;;3.35;2.53;;;3.80;85.60;;;;;;5052103;28;20025;-71
2022/05/19 01:11:02;;;;;;;3.67;2.97;;;3.80;85.70;;;;;;5053482;28;20371;-71
2022/05/19 01:13:30;;;;;;;3.42;3.13;;;3.70;86.10;;;;;;5053318;28;20025;-71
2022/05/19 01:15:57;;;;;;;4.43;2.58;;;3.70;86.60;;;;;;5053462;28;20032;-71
2022/05/19 01:18:25;;;;;;;4.25;2.50;;;3.80;86.10;;;;;;5052946;28;20497;-67
2022/05/19 01:20:52;;;;;;;5.93;3.58;;;3.80;85.60;;;;;;5052148;28;20021;-67
2022/05/19 01:23:23;;;;;;;5.28;3.53;;;3.70;85.90;;;;;;5052015;28;20029;-67
2022/05/19 01:26:03;;;;;;;7.18;4.68;;;3.70;86.50;;;;;;5052039;28;20029;-67
2022/05/19 01:28:30;;;;;;;6.82;3.50;;;3.60;87.00;;;;;;5053010;28;20021;-71
2022/05/19 01:30:55;;;;;;;8.40;3.30;;;3.50;88.10;;;;;;5053099;28;20021;-71
2022/05/19 01:33:21;;;;;;;4.47;3.25;;;3.50;88.30;;;;;;5053177;28;20482;-68
2022/05/19 01:35:47;;;;;;;5.57;3.13;;;3.50;88.10;;;;;;5051930;28;20112;-71
2022/05/19 01:38:30;;;;;;;5.65;3.10;;;3.50;89.00;;;;;;5052062;28;20492;-71
2022/05/19 01:41:24;;;;;;;5.28;3.05;;;3.40;88.90;;;;;;5053183;28;20031;-67
2022/05/19 01:43:59;;;;;;;3.72;3.13;;;3.40;88.90;;;;;;5053198;28;20029;-67
2022/05/19 01:46:31;;;;;;;4.85;2.65;;;3.40;88.40;;;;;;5052949;28;20158;-67
2022/05/19 01:49:08;;;;;;;6.60;3.50;;;3.40;88.40;;;;;;5052953;28;20044;-71
2022/05/19 01:52:06;;;;;;;4.93;3.30;;;3.40;88.80;;;;;;5055430;28;20096;-71
2022/05/19 01:54:47;;;;;;;5.07;3.53;;;3.30;89.50;;;;;;5033670;28;20033;-67
2022/05/19 01:57:48;;;;;;;5.63;3.42;;;3.30;89.30;;;;;;5056908;28;20028;-67
2022/05/19 02:00:24;;;;;;;4.18;3.42;;;3.20;91.20;;;;;;5050118;28;20397;-67
2022/05/19 02:03:21;;;;;;;7.18;4.85;;;3.10;91.40;;;;;;5057002;28;20039;-67
2022/05/19 02:06:07;;;;;;;5.97;3.33;;;3.10;92.10;;;;;;5055906;28;20040;-67
2022/05/19 02:08:44;;;;;;;9.13;4.78;;;3.10;92.60;;;;;;5056452;28;20367;-72
2022/05/19 02:11:15;;;;;;;5.82;3.92;;;3.10;91.90;;;;;;5057008;28;20074;-67
2022/05/19 02:13:42;;;;;;;7.32;3.63;;;3.10;91.90;;;;;;5056775;28;20017;-68
2022/05/19 02:16:12;;;;;;;5.65;3.85;;;3.00;92.40;;;;;;5056659;28;20079;-68
2022/05/19 02:18:37;;;;;;;4.05;2.58;;;3.00;93.20;;;;;;5056362;28;20088;-71
2022/05/19 02:21:04;;;;;;;5.80;2.85;;;2.90;93.10;;;;;;5056516;28;20060;-67
2022/05/19 02:23:32;;;;;;;4.63;2.75;;;2.90;94.30;;;;;;5056518;28;20100;-71
2022/05/19 02:25:58;;;;;;;5.22;3.28;;;2.90;94.40;;;;;;5056520;28;20103;-71
2022/05/19 02:28:31;;;;;;;6.72;3.65;;;2.80;94.00;;;;;;5055160;28;20463;-68
2022/05/19 02:30:57;;;;;;;8.88;3.88;;;2.80;94.70;;;;;;5055176;28;20040;-71
2022/05/19 02:33:23;;;;;;;4.72;3.25;;;2.80;95.40;;;;;;5054989;28;20450;-71
2022/05/19 02:35:48;;;;;;;6.50;3.10;;;2.80;95.50;;;;;;5056279;28;20047;-71
2022/05/19 02:38:15;;;;;;;3.10;2.80;;;2.70;96.00;;;;;;5056251;28;20104;-71
2022/05/19 02:40:42;;;;;;;8.90;3.33;;;2.70;96.00;;;;;;5056198;28;20025;-69
2022/05/19 02:43:09;;;;;;;4.90;3.42;;;2.80;95.60;;;;;;5056036;28;20521;-67
2022/05/19 02:45:36;;;;;;;4.68;3.70;;;2.70;95.40;;;;;;5055751;28;20036;-67
2022/05/19 02:48:03;;;;;;;5.20;3.60;;;2.80;95.10;;;;;;5056108;28;20044;-68
2022/05/19 02:50:29;;;;;;;8.13;3.90;;;2.80;95.40;;;;;;5056083;28;20449;-71
2022/05/19 02:52:55;;;;;;;4.82;2.88;;;2.80;94.90;;;;;;5055935;28;20103;-71
2022/05/19 02:55:20;;;;;;;3.25;3.00;;;2.80;95.40;;;;;;5055897;28;20105;-71
2022/05/19 02:57:48;;;;;;;4.72;4.30;;;2.80;94.70;;;;;;5055921;28;20104;-67
2022/05/19 03:00:17;;;;;;;3.97;3.53;;;2.80;95.30;;;;;;5054681;28;20552;-67
2022/05/19 03:02:43;;;;;;;3.58;2.90;;;2.70;95.00;;;;;;5054870;28;20028;-70
2022/05/19 03:05:11;;;;;;;5.90;2.95;;;2.70;94.90;;;;;;5055749;28;20048;-67
2022/05/19 03:07:37;;;;;;;7.15;3.75;;;2.70;95.40;;;;;;5055769;28;21955;-71
2022/05/19 03:10:04;;;;;;;5.03;3.70;;;2.60;96.00;;;;;;5055443;28;20076;-68
2022/05/19 03:12:30;;;;;;;5.55;3.40;;;2.60;96.20;;;;;;5055439;28;20028;-70
2022/05/19 03:14:56;;;;;;;6.30;3.50;;;2.50;96.20;;;;;;5055548;28;20414;-71
2022/05/19 03:17:21;;;;;;;5.45;3.88;;;2.50;96.80;;;;;;5055585;28;20100;-71
2022/05/19 03:19:47;;;;;;;5.35;3.58;;;2.50;97.40;;;;;;5055396;28;20025;-67
2022/05/19 03:22:13;;;;;;;7.35;3.85;;;2.50;97.70;;;;;;5055419;28;20131;-71
2022/05/19 03:24:38;;;;;;;7.63;4.05;;;2.50;97.60;;;;;;5055194;28;20486;-69
2022/05/19 03:27:05;;;;;;;7.82;4.13;;;2.60;98.10;;;;;;5055407;28;20070;-71
2022/05/19 03:29:31;;;;;;;5.75;3.08;;;2.80;98.60;;;;;;5055102;28;20039;-67
2022/05/19 03:31:59;;;;;;;4.63;3.65;;;3.00;98.40;;;;;;5055339;28;20040;-71
2022/05/19 03:34:24;;;;;;;5.53;3.40;;;3.20;97.00;;;;;;5055286;28;20029;-68
2022/05/19 03:36:50;;;;;;;11.93;3.80;;;3.40;94.80;;;;;;5055324;28;20151;-70
2022/05/19 03:39:16;;;;;;;7.20;3.60;;;3.60;93.00;;;;;;5054940;28;20405;-71
2022/05/19 03:41:41;;;;;;;7.65;4.13;;;3.90;92.00;;;;;;5054946;28;20037;-67
2022/05/19 03:44:07;;;;;;;5.50;3.47;;;4.20;89.00;;;;;;5054961;28;20052;-71
2022/05/19 03:46:33;;;;;;;6.90;4.03;;;4.40;87.60;;;;;;5055021;28;20497;-71
2022/05/19 03:48:58;;;;;;;8.15;3.17;;;4.80;85.90;;;;;;5054802;28;20064;-71
2022/05/19 03:51:27;;;;;;;7.10;3.60;;;5.10;82.80;;;;;;5053502;28;20032;-67
2022/05/19 03:53:54;;;;;;;3.80;2.88;;;5.30;80.50;;;;;;5054841;28;20028;-71
2022/05/19 03:56:21;;;;;;;4.07;2.95;;;5.40;78.30;;;;;;5054825;28;20098;-71
2022/05/19 03:58:48;;;;;;;7.53;3.20;;;5.50;77.70;;;;;;5054620;28;20109;-68
2022/05/19 04:01:14;;;;;;;9.15;4.00;;;5.70;76.40;;;;;;5054564;28;20048;-68
2022/05/19 04:03:40;;;;;;;10.50;5.28;;;5.90;75.20;;;;;;5054590;28;20102;-71
2022/05/19 04:06:05;;;;;;;13.93;6.75;;;6.00;74.00;;;;;;5054653;28;20109;-71
2022/05/19 04:08:31;;;;;;;12.45;6.85;;;6.20;73.20;;;;;;5054555;28;20445;-71
2022/05/19 04:10:56;;;;;;;11.85;5.57;;;6.30;72.30;;;;;;5054360;28;20425;-68
2022/05/19 04:13:22;;;;;;;9.93;4.95;;;6.40;72.00;;;;;;5053199;28;20029;-68
2022/05/19 04:15:48;;;;;;;10.60;5.28;;;6.50;71.40;;;;;;5053075;28;20103;-67
2022/05/19 04:18:14;;;;;;;8.82;4.38;;;6.70;71.00;;;;;;5054414;28;20128;-68
2022/05/19 04:20:40;;;;;;;7.38;4.70;;;6.80;70.60;;;;;;5053975;28;20025;-71
2022/05/19 04:23:06;;;;;;;6.15;3.85;;;6.90;70.90;;;;;;5054367;28;20021;-71
2022/05/19 04:25:32;;;;;;;6.32;4.28;;;7.10;70.90;;;;;;5052843;28;20033;-69
2022/05/19 04:27:58;;;;;;;7.35;3.42;;;7.40;70.60;;;;;;5054060;28;20117;-69
2022/05/19 04:30:24;;;;;;;6.47;3.65;;;7.60;70.40;;;;;;5053960;28;20029;-71
2022/05/19 04:32:49;;;;;;;8.32;3.35;;;7.90;70.40;;;;;;5052860;28;20025;-71
2022/05/19 04:35:16;;;;;;;5.55;3.30;;;8.10;70.80;;;;;;5054091;28;20028;-69
2022/05/19 04:37:42;;;;;;;6.78;4.20;;;8.40;71.50;;;;;;5052692;28;20486;-71
2022/05/19 04:40:08;;;;;;;7.82;4.10;;;8.60;71.40;;;;;;5054018;28;20425;-68
2022/05/19 04:42:34;;;;;;;6.70;3.92;;;8.80;70.00;;;;;;5052658;28;20021;-68
2022/05/19 04:45:00;;;;;;;8.20;4.60;;;9.00;69.20;;;;;;5053865;28;20103;-71
2022/05/19 04:47:26;;;;;;;5.60;4.03;;;9.00;69.10;;;;;;5053682;28;20051;-68
2022/05/19 04:49:52;;;;;;;7.82;4.07;;;9.00;69.90;;;;;;5052544;28;20393;-68
2022/05/19 04:52:19;;;;;;;12.85;7.10;;;9.10;70.40;;;;;;5053810;28;20104;-71
2022/05/19 04:54:44;;;;;;;13.50;6.63;;;9.20;70.80;;;;;;5053602;28;20017;-68
2022/05/19 04:57:10;;;;;;;12.57;6.22;;;9.30;70.80;;;;;;5051458;28;20489;-72
2022/05/19 04:59:37;;;;;;;10.48;5.10;;;9.40;70.90;;;;;;5047045;28;20151;-72
2022/05/19 05:02:03;;;;;;;10.00;4.90;;;9.50;69.20;;;;;;5045633;28;20037;-72
2022/05/19 05:04:30;;;;;;;7.32;4.53;;;9.80;71.20;;;;;;5051985;28;20022;-72
2022/05/19 05:06:56;;;;;;;7.90;3.97;;;9.90;72.00;;;;;;5053277;28;20025;-72
2022/05/19 05:09:22;;;;;;;4.10;2.25;;;10.10;74.40;;;;;;5037130;28;20116;-68
2022/05/19 05:11:48;;;;;;;9.32;3.63;;;10.30;70.10;;;;;;5034426;28;20545;-68
2022/05/19 05:14:14;;;;;;;3.55;2.72;;;10.50;69.10;;;;;;5032065;28;20028;-72
2022/05/19 05:16:40;;;;;;;8.35;3.00;;;10.60;70.70;;;;;;5033013;28;20021;-68
2022/05/19 05:19:05;;;;;;;5.47;2.90;;;10.80;71.70;;;;;;5039572;28;20056;-68
2022/05/19 05:21:31;;;;;;;5.35;2.92;;;11.00;71.10;;;;;;5053076;28;20390;-68
2022/05/19 05:23:57;;;;;;;5.43;2.30;;;11.20;68.10;;;;;;5053116;28;20430;-69
2022/05/19 05:26:22;;;;;;;2.75;2.00;;;11.40;63.40;;;;;;5052500;28;20437;-68
2022/05/19 05:28:48;;;;;;;6.70;2.50;;;11.50;60.60;;;;;;5053172;28;20032;-71
2022/05/19 05:31:13;;;;;;;5.25;2.42;;;11.80;59.10;;;;;;5052950;28;20025;-72
2022/05/19 05:33:39;;;;;;;5.15;2.53;;;11.90;58.40;;;;;;5051927;28;20103;-69
2022/05/19 05:36:05;;;;;;;5.35;2.58;;;12.10;58.40;;;;;;5052808;28;20490;-73
2022/05/19 05:38:31;;;;;;;6.28;2.45;;;12.30;57.50;;;;;;5053052;28;20104;-69
2022/05/19 05:40:58;;;;;;;5.72;2.78;;;12.50;57.20;;;;;;5052896;28;20067;-72
2022/05/19 05:43:24;;;;;;;4.32;2.30;;;12.60;55.70;;;;;;5053160;28;20112;-72
2022/05/19 05:45:51;;;;;;;4.43;1.80;;;12.80;53.10;;;;;;5053095;28;20067;-72
2022/05/19 05:48:17;;;;;;;2.95;2.08;;;12.90;50.40;;;;;;5045766;28;20397;-72
2022/05/19 05:50:43;;;;;;;3.55;1.95;;;13.10;49.80;;;;;;5064451;28;20041;-68
2022/05/19 05:53:09;;;;;;;2.35;1.80;;;13.30;49.50;;;;;;5071797;28;20024;-68
2022/05/19 05:55:36;;;;;;;4.72;1.95;;;13.40;48.50;;;;;;5064827;28;20028;-68
2022/05/19 05:58:10;;;;;;;4.80;2.20;;;13.50;47.70;;;;;;5070649;28;20025;-69
2022/05/19 06:00:38;;;;;;;4.40;2.00;;;13.70;48.00;;;;;;5070938;28;20024;-69
2022/05/19 06:03:04;;;;;;;6.30;2.78;;;13.80;48.00;;;;;;5071744;28;20048;-69
2022/05/19 06:05:30;;;;;;;4.32;2.08;;;14.00;48.40;;;;;;5066016;28;20035;-68
2022/05/19 06:07:55;;;;;;;3.30;2.10;;;14.10;48.50;;;;;;5071748;28;20033;-69
2022/05/19 06:10:21;;;;;;;4.70;2.25;;;14.30;48.40;;;;;;5062082;28;20036;-68
2022/05/19 06:12:47;;;;;;;7.03;2.78;;;14.50;48.10;;;;;;5059037;28;20146;-68
2022/05/19 06:15:15;;;;;;;4.00;2.45;;;14.60;47.10;;;;;;5064852;28;20094;-69
2022/05/19 06:17:41;;;;;;;2.65;1.83;;;14.80;47.20;;;;;;5066579;28;20055;-69
2022/05/19 06:20:13;;;;;;;6.60;2.63;;;14.90;45.70;;;;;;5048203;28;20079;-68
2022/05/19 06:22:39;;;;;;;4.75;2.55;;;15.10;46.20;;;;;;5047911;28;20041;-68
2022/05/19 06:25:05;;;;;;;6.28;2.42;;;15.30;46.30;;;;;;5063599;28;20464;-69
2022/05/19 06:27:31;;;;;;;8.27;2.70;;;15.40;45.90;;;;;;5054969;28;20071;-69
2022/05/19 06:29:57;;;;;;;10.15;3.00;;;15.60;45.70;;;;;;5065841;28;20428;-70
2022/05/19 06:32:22;;;;;;;6.38;2.72;;;15.80;45.20;;;;;;5069008;28;20128;-70
2022/05/19 06:34:48;;;;;;;4.93;2.97;;;15.90;45.10;;;;;;5063966;28;20037;-69
2022/05/19 06:37:13;;;;;;;4.70;2.92;;;16.10;44.60;;;;;;5057413;28;20025;-73
2022/05/19 06:39:39;;;;;;;7.68;3.45;;;16.30;44.80;;;;;;5055801;28;20500;-72
2022/05/19 06:42:11;;;;;;;9.23;3.78;;;16.40;44.20;;;;;;5055813;28;20482;-70
2022/05/19 06:44:39;;;;;;;9.73;3.40;;;16.50;44.30;;;;;;5054851;28;20051;-69
2022/05/19 06:47:10;;;;;;;7.95;3.15;;;16.60;43.70;;;;;;5055743;28;20473;-69
2022/05/19 06:49:36;;;;;;;7.65;3.60;;;16.80;43.30;;;;;;5053658;28;20394;-73
2022/05/19 06:52:03;;;;;;;11.75;4.20;;;16.80;42.80;;;;;;5052289;28;20111;-73
2022/05/19 06:54:28;;;;;;;12.75;4.15;;;16.90;42.00;;;;;;5052259;28;20116;-72
2022/05/19 06:56:54;;;;;;;9.35;3.72;;;17.00;42.20;;;;;;5051795;28;20128;-72
2022/05/19 06:59:22;;;;;;;13.43;4.72;;;17.20;41.60;;;;;;5052130;28;20777;-72
2022/05/19 07:01:48;;;;;;;6.65;3.67;;;17.40;40.90;;;;;;5051981;28;20125;-72
2022/05/19 07:04:15;;;;;;;7.72;3.78;;;17.50;41.20;;;;;;5053092;28;20036;-73
2022/05/19 07:06:41;;;;;;;6.43;3.30;;;17.80;41.10;;;;;;5054436;28;20024;-69
2022/05/19 07:09:07;;;;;;;6.53;3.03;;;17.80;40.10;;;;;;5054154;28;20033;-73
2022/05/19 07:11:32;;;;;;;8.77;3.47;;;18.00;40.10;;;;;;5055287;28;20489;-73
2022/05/19 07:14:02;;;;;;;7.80;3.72;;;18.10;39.20;;;;;;5055576;28;20013;-73
2022/05/19 07:16:29;;;;;;;4.03;2.70;;;18.10;38.80;;;;;;5054912;28;20118;-73
2022/05/19 07:21:43;;;;;;;4.40;2.20;;;18.20;37.80;;;;;;5055485;28;20044;-73
2022/05/19 07:24:16;;;;;;;3.85;2.20;;;18.30;38.20;;;;;;5055288;28;20393;-70
2022/05/19 07:26:46;;;;;;;5.50;2.22;;;18.50;38.10;;;;;;5055447;28;20766;-73
2022/05/19 07:29:12;;;;;;;3.55;2.47;;;18.50;37.30;;;;;;5055199;28;20099;-73
2022/05/19 07:31:38;;;;;;;4.15;2.13;;;18.50;37.00;;;;;;5055131;28;20061;-70
2022/05/19 07:34:08;;;;;;;7.13;2.40;;;18.70;37.00;;;;;;5055101;28;20053;-71
2022/05/19 07:36:34;;;;;;;2.50;1.90;;;18.90;37.90;;;;;;5055127;28;20024;-73
2022/05/19 07:39:00;;;;;;;4.25;2.85;;;18.80;36.90;;;;;;5053670;28;20552;-71
2022/05/19 07:41:30;;;;;;;5.07;2.78;;;18.70;36.40;;;;;;5054943;28;20103;-70
2022/05/19 07:43:57;;;;;;;10.88;2.72;;;18.80;35.80;;;;;;5054768;28;20463;-73
2022/05/19 07:46:27;;;;;;;4.97;2.05;;;18.80;36.20;;;;;;5054983;28;20033;-73
2022/05/19 07:48:54;;;;;;;7.18;2.50;;;18.70;36.70;;;;;;5054465;28;20036;-70
2022/05/19 07:51:40;;;;;;;4.80;2.17;;;18.80;36.10;;;;;;5054815;28;20386;-73
2022/05/19 07:54:13;;;;;;;2.25;2.05;;;19.00;36.70;;;;;;5053476;28;20017;-73
2022/05/19 07:56:40;;;;;;;5.10;2.30;;;19.00;36.10;;;;;;5054843;28;20493;-73
2022/05/19 07:59:06;;;;;;;3.13;2.05;;;19.10;36.70;;;;;;5054473;28;20024;-73
2022/05/19 08:01:32;;;;;;;5.05;2.30;;;19.30;37.10;;;;;;5054494;28;20031;-73
2022/05/19 08:03:59;;;;;;;3.15;1.88;;;19.30;36.80;;;;;;5053396;28;20025;-70
2022/05/19 08:06:28;;;;;;;4.40;2.03;;;19.50;36.80;;;;;;5054464;28;20040;-73
2022/05/19 08:08:54;;;;;;;6.05;2.05;;;19.70;37.30;;;;;;5053813;28;20032;-73
2022/05/19 08:11:20;;;;;;;3.65;2.22;;;19.80;37.20;;;;;;5054141;28;20021;-71
2022/05/19 08:16:29;;;;;;;5.25;2.00;;;19.60;35.10;;;;;;5054550;28;20515;-72
2022/05/19 08:18:55;;;;;;;5.60;2.53;;;19.60;35.50;;;;;;5054099;28;20073;-71
2022/05/19 08:21:21;;;;;;;4.55;1.77;;;19.70;35.80;;;;;;5054219;28;20483;-71
2022/05/19 08:23:50;;;;;;;5.82;2.10;;;19.70;36.20;;;;;;5053991;28;20025;-71
2022/05/19 08:26:16;;;;;;;4.63;1.80;;;19.90;35.60;;;;;;5053983;28;20037;-71
2022/05/19 08:28:43;;;;;;;1.92;1.80;;;19.90;36.10;;;;;;5053876;28;20043;-71
2022/05/19 08:31:15;;;;;;;5.47;1.90;;;20.00;35.30;;;;;;5054041;28;20381;-71
2022/05/19 08:33:43;;;;;;;4.50;2.38;;;20.10;35.00;;;;;;5053949;28;20409;-73
2022/05/19 08:36:09;;;;;;;5.05;2.25;;;20.00;34.50;;;;;;5053979;28;20021;-73
2022/05/19 08:38:36;;;;;;;2.97;2.05;;;19.90;33.40;;;;;;5053934;28;20021;-74
2022/05/19 08:41:33;;;;;;;6.53;2.92;;;20.20;34.00;;;;;;5053857;28;20078;-71
2022/05/19 08:44:10;;;;;;;10.23;2.40;;;20.40;35.30;;;;;;5053970;28;20048;-73
2022/05/19 08:46:41;;;;;;;5.15;2.30;;;20.50;33.80;;;;;;5053800;28;20060;-73
2022/05/19 08:49:38;;;;;;;6.57;2.17;;;20.50;33.40;;;;;;5052183;28;20083;-71
2022/05/19 08:52:05;;;;;;;5.00;2.10;;;20.40;32.30;;;;;;5053703;28;20484;-72
2022/05/19 08:54:33;;;;;;;3.00;2.30;;;20.50;33.00;;;;;;5053533;28;20029;-71
2022/05/19 08:57:05;;;;;;;12.45;3.10;;;20.50;33.60;;;;;;5053639;28;20025;-71
2022/05/19 08:59:46;;;;;;;5.45;2.75;;;20.70;34.40;;;;;;5052874;28;20371;-73
2022/05/19 09:02:16;;;;;;;5.82;2.38;;;20.80;34.60;;;;;;5053557;28;20032;-73
2022/05/19 09:05:19;;;;;;;7.57;3.42;;;20.80;34.00;;;;;;5053767;28;20025;-73
2022/05/19 09:07:59;;;;;;;;;;;20.80;32.80;;;;;;5053829;28;20363;-72
2022/05/19 09:11:04;;;;;;;7.97;3.17;;;21.00;33.30;;;;;;5053475;28;19904;-71
2022/05/19 09:13:39;;;;;;;5.53;2.53;;;21.20;34.00;;;;;;5053639;28;20036;-71
2022/05/19 09:16:16;;;;;;;9.75;2.78;;;21.40;34.20;;;;;;5053263;28;20066;-74
2022/05/19 09:18:47;;;;;;;4.20;2.42;;;21.40;33.30;;;;;;5053317;28;20045;-73
2022/05/19 09:21:14;;;;;;;4.28;2.33;;;21.50;32.70;;;;;;5053673;28;20128;-72
2022/05/19 09:23:40;;;;;;;4.70;2.50;;;21.60;32.80;;;;;;5052409;28;20112;-72
2022/05/19 09:26:28;;;;;;;6.72;2.90;;;21.60;31.90;;;;;;5053404;28;20024;-72
2022/05/19 09:28:56;;;;;;;4.07;2.70;;;21.50;31.40;;;;;;5052112;28;20041;-73
2022/05/19 09:31:36;;;;;;;4.03;2.17;;;21.60;32.10;;;;;;5033475;28;20022;-72
2022/05/19 09:34:03;;;;;;;5.90;3.03;;;21.60;32.10;;;;;;5033381;28;20132;-72
2022/05/19 09:36:28;;;;;;;6.82;2.85;;;21.60;32.30;;;;;;5033489;28;20427;-73
2022/05/19 09:39:02;;;;;;;10.10;2.92;;;21.60;32.40;;;;;;5033415;28;20033;-74
2022/05/19 09:41:28;;;;;;;9.50;2.90;;;21.70;32.40;;;;;;5033255;28;20052;-71
2022/05/19 09:43:56;;;;;;;9.75;2.92;;;21.70;32.40;;;;;;5033239;28;20499;-73
2022/05/19 09:46:22;;;;;;;13.93;2.95;;;21.80;32.20;;;;;;5033378;28;20083;-72
2022/05/19 09:48:51;;;;;;;6.78;2.88;;;21.80;31.30;;;;;;5033171;28;20038;-73
2022/05/19 09:51:19;;;;;;;3.63;2.50;;;21.90;31.10;;;;;;5033318;28;20121;-72
2022/05/19 09:53:52;;;;;;;3.85;2.58;;;22.20;32.10;;;;;;5033116;28;20067;-73
2022/05/19 09:56:22;;;;;;;9.80;3.80;;;22.10;31.70;;;;;;5033396;28;20426;-72
2022/05/19 09:58:52;;;;;;;7.80;2.50;;;22.00;31.60;;;;;;5031773;28;20030;-74
2022/05/19 10:01:26;;;;;;;6.63;3.00;;;21.90;31.80;;;;;;5033086;28;20025;-74
2022/05/19 10:04:01;;;;;;;4.50;2.67;;;21.90;32.30;;;;;;5033105;28;20032;-74
2022/05/19 10:06:39;;;;;;;5.40;2.47;;;21.90;31.70;;;;;;5031632;28;20024;-72
2022/05/19 10:09:13;;;;;;;5.65;2.67;;;22.00;31.70;;;;;;5031746;28;20483;-74
2022/05/19 10:11:51;;;;;;;6.22;2.60;;;22.10;32.20;;;;;;5034886;28;20032;-74
2022/05/19 10:14:26;;;;;;;4.40;2.20;;;22.00;31.70;;;;;;5036696;28;20024;-72
2022/05/19 10:17:15;;;;;;;7.05;2.45;;;22.00;31.90;;;;;;5037007;28;20440;-72
2022/05/19 10:19:56;;;;;;;4.35;2.28;;;22.30;32.90;;;;;;5046652;28;20127;-72
2022/05/19 10:22:41;;;;;;;7.68;3.35;;;22.10;31.10;;;;;;5056746;28;20044;-72
2022/05/19 10:25:28;;;;;;;3.28;2.25;;;22.30;31.80;;;;;;5056775;28;20031;-72
2022/05/19 10:31:13;;;;;;;7.32;2.80;;;22.40;30.30;;;;;;5056461;28;20114;-72
2022/05/19 10:34:07;;;;;;;5.60;2.00;;;22.60;31.10;;;;;;5055271;28;20025;-72
2022/05/19 10:37:05;;;;;;;3.50;2.22;;;23.00;31.70;;;;;;5056355;28;20429;-73
2022/05/19 10:39:50;;;;;;;6.00;2.40;;;22.80;30.00;;;;;;5041694;28;20037;-74
2022/05/19 10:42:37;;;;;;;6.97;2.70;;;22.80;30.20;;;;;;5056284;28;20445;-72
2022/05/19 10:45:22;;;;;;;4.20;2.13;;;22.80;30.70;;;;;;5056424;28;20386;-72
2022/05/19 10:48:00;;;;;;;6.07;2.25;;;22.90;31.20;;;;;;5056568;28;20017;-72
2022/05/19 10:50:26;;;;;;;4.38;2.10;;;23.00;30.60;;;;;;5056222;28;20112;-73
2022/05/19 10:52:58;;;;;;;5.40;2.03;;;23.10;30.40;;;;;;5056254;28;20451;-73
2022/05/19 10:55:33;;;;;;;6.68;1.75;;;23.00;29.30;;;;;;5056184;28;20025;-74
2022/05/19 10:58:21;;;;;;;3.47;1.83;;;22.90;29.30;;;;;;5056212;28;20021;-73
2022/05/19 11:01:09;;;;;;;4.45;2.45;;;22.90;29.50;;;;;;5056119;28;20051;-72
2022/05/19 11:03:47;;;;;;;4.50;2.55;;;23.10;30.10;;;;;;5056182;28;20021;-74
2022/05/19 11:06:25;;;;;;;4.10;1.92;;;23.20;29.60;;;;;;5055746;28;20386;-74
2022/05/19 11:09:07;;;;;;;1.98;1.77;;;23.30;29.80;;;;;;5056101;28;20032;-73
2022/05/19 11:11:53;;;;;;;4.70;2.17;;;23.50;29.50;;;;;;5055753;28;20233;-73
2022/05/19 11:14:38;;;;;;;3.45;2.05;;;23.60;29.10;;;;;;5054629;28;20029;-73
2022/05/19 11:17:20;;;;;;;3.58;1.75;;;23.80;29.40;;;;;;5055536;28;20025;-74
2022/05/19 11:19:50;;;;;;;;;;;23.60;28.60;;;;;;5054771;28;20107;-73
2022/05/19 11:22:23;;;;;;;2.53;1.88;;;23.70;28.60;;;;;;5055282;28;19906;-74
2022/05/19 11:27:58;;;;;;;4.13;2.23;;;23.70;30.00;;;;;;5055542;28;20036;-73
2022/05/19 11:30:33;;;;;;;6.30;2.10;;;23.80;30.00;;;;;;5055447;28;20109;-74
2022/05/19 11:33:04;;;;;;;3.88;1.80;;;23.90;30.30;;;;;;5054170;28;20036;-73
2022/05/19 11:35:38;;;;;;;3.47;1.75;;;23.70;29.70;;;;;;5055295;28;20025;-74
2022/05/19 11:38:21;;;;;;;4.55;1.98;;;23.90;29.40;;;;;;5055408;28;20060;-73
2022/05/19 11:41:01;;;;;;;3.70;2.10;;;23.90;29.80;;;;;;5053848;28;20024;-73
2022/05/19 11:43:47;;;;;;;4.95;1.83;;;24.10;29.60;;;;;;5055290;28;20057;-74
2022/05/19 11:46:18;;;;;;;5.47;1.88;;;24.20;28.90;;;;;;5055212;28;20116;-73
2022/05/19 11:55:12;;;;;;;5.25;1.98;;;24.30;29.10;;;;;;5042086;28;20109;-74
2022/05/19 11:58:03;;;;;;;4.95;1.88;;;24.30;28.60;;;;;;5056823;28;20017;-74
2022/05/19 12:00:35;;;;;;;4.25;1.83;;;24.30;28.10;;;;;;5058966;28;20025;-75
2022/05/19 12:03:21;;;;;;;4.85;1.83;;;24.30;26.80;;;;;;5060526;28;20051;-75
2022/05/19 12:06:03;;;;;;;3.65;1.70;;;24.50;26.90;;;;;;5049953;28;20540;-75
2022/05/19 12:08:50;;;;;;;4.20;2.03;;;24.60;25.80;;;;;;5055177;28;20079;-74
2022/05/19 12:11:23;;;;;;;3.45;1.55;;;24.70;26.00;;;;;;5070014;28;20017;-74
2022/05/19 12:14:05;;;;;;;2.17;1.63;;;24.50;26.20;;;;;;5073215;28;20047;-74
2022/05/19 12:16:45;;;;;;;;;;;24.40;26.80;;;;;;5073575;28;20017;-74
2022/05/19 12:19:37;;;;;;;2.58;1.80;;;24.30;26.90;;;;;;5068375;28;19917;-74
2022/05/19 12:22:10;;;;;;;2.13;1.65;;;24.40;27.70;;;;;;5072766;28;20385;-74
2022/05/19 12:24:42;;;;;;;3.80;2.10;;;24.60;27.60;;;;;;5072204;28;20098;-76
2022/05/19 12:27:12;;;;;;;14.38;2.50;;;24.70;28.00;;;;;;5072778;28;20029;-73
2022/05/19 12:31:56;;;;;;;2.80;1.80;;;24.90;28.90;;;;;;5056954;28;20045;-73
2022/05/19 12:33:02;;;;;;;4.65;2.03;;;25.00;28.60;;;;;;5053549;28;20551;-73
2022/05/19 12:35:29;;;;;;;4.10;1.83;;;25.00;28.60;;;;;;5070458;28;20043;-73
2022/05/19 12:38:02;;;;;;;4.88;2.00;;;25.00;28.50;;;;;;5066944;28;20097;-74
2022/05/19 12:40:29;;;;;;;2.22;1.95;;;25.00;28.30;;;;;;5063092;28;20491;-73
2022/05/19 12:43:17;;;;;;;2.90;2.13;;;24.80;27.40;;;;;;5072528;28;20029;-73
2022/05/19 12:45:47;;;;;;;4.63;1.95;;;24.80;27.60;;;;;;5071337;28;20048;-73
2022/05/19 12:48:12;;;;;;;7.90;2.05;;;24.70;28.20;;;;;;5072192;28;20047;-73
2022/05/19 12:50:46;;;;;;;7.70;2.80;;;24.80;29.00;;;;;;5072525;28;20098;-73
2022/05/19 12:53:37;;;;;;;4.10;2.00;;;25.10;29.40;;;;;;5071652;28;20024;-74
2022/05/19 12:56:02;;;;;;;4.20;2.25;;;25.00;28.20;;;;;;5044709;28;20053;-74
2022/05/19 12:58:42;;;;;;;6.95;2.30;;;25.20;28.50;;;;;;5039999;28;20045;-74
2022/05/19 13:01:16;;;;;;;5.90;2.05;;;25.30;28.70;;;;;;5043583;28;20017;-74
2022/05/19 13:03:43;;;;;;;5.40;1.85;;;25.50;28.70;;;;;;5041724;28;20103;-74
2022/05/19 13:06:12;;;;;;;6.30;2.13;;;25.60;28.20;;;;;;5038331;28;20021;-75
2022/05/19 13:08:49;;;;;;;5.10;2.13;;;25.70;28.30;;;;;;5036866;28;20052;-75
2022/05/19 13:11:21;;;;;;;1.98;1.80;;;25.70;28.20;;;;;;5063552;28;20032;-75
2022/05/19 13:13:53;;;;;;;4.82;2.00;;;25.80;28.20;;;;;;5069234;28;20036;-76
2022/05/19 13:16:26;;;;;;;;;;;25.70;27.90;;;;;;5063421;28;20035;-75
2022/05/19 13:18:59;;;;;;;12.95;2.38;;;25.60;27.70;;;;;;5041492;28;19921;-75
2022/05/19 13:22:08;;;;;;;4.22;1.98;;;25.70;28.20;;;;;;5051577;28;20017;-75
2022/05/19 13:24:41;;;;;;;3.75;1.88;;;25.70;28.20;;;;;;5070587;28;20575;-75
2022/05/19 13:32:40;;;;;;;6.97;2.47;;;26.00;28.20;;;;;;5068918;28;20086;-75
2022/05/19 13:35:24;;;;;;;4.57;1.98;;;26.00;28.60;;;;;;5068471;28;20041;-75